createdAt,value
2023-03-13T00:00:34.157Z,11.99
2023-03-13T00:01:34.140Z,11.94
2023-03-13T00:02:34.173Z,12.04
2023-03-13T00:03:34.048Z,12.05
2023-03-13T00:04:34.099Z,11.97
2023-03-13T00:05:34.020Z,12.16
2023-03-13T00:06:34.013Z,12.13
2023-03-13T00:07:33.968Z,12.20
2023-03-13T00:08:33.938Z,12.15
2023-03-13T00:09:33.924Z,12.06
2023-03-13T00:10:33.927Z,12.02
2023-03-13T00:11:33.928Z,11.99
2023-03-13T00:12:33.851Z,11.90
2023-03-13T00:13:33.843Z,11.90
2023-03-13T00:14:33.794Z,11.90
2023-03-13T00:15:33.789Z,11.93
2023-03-13T00:16:33.836Z,12.01
2023-03-13T00:17:33.729Z,12.01
2023-03-13T00:18:33.710Z,11.94
2023-03-13T00:19:33.682Z,12.01
2023-03-13T00:20:33.653Z,11.87
2023-03-13T00:21:33.637Z,11.94
2023-03-13T00:22:33.634Z,11.93
2023-03-13T00:23:33.589Z,11.94
2023-03-13T00:24:33.567Z,11.97
2023-03-13T00:25:33.533Z,11.87
2023-03-13T00:26:33.516Z,11.93
2023-03-13T00:27:33.493Z,11.89
2023-03-13T00:28:33.479Z,11.96
2023-03-13T00:29:33.450Z,12.01
2023-03-13T00:30:33.452Z,12.01
2023-03-13T00:31:33.424Z,12.02
2023-03-13T00:32:33.484Z,12.01
2023-03-13T00:33:33.370Z,12.16
2023-03-13T00:34:33.333Z,12.09
2023-03-13T00:35:33.343Z,12.02
2023-03-13T00:36:33.306Z,11.99
2023-03-13T00:37:33.245Z,12.04
2023-03-13T00:38:33.272Z,11.99
2023-03-13T00:39:33.211Z,11.96
2023-03-13T00:40:33.186Z,11.87
2023-03-13T00:41:33.156Z,11.87
2023-03-13T00:42:33.139Z,11.87
2023-03-13T00:43:33.108Z,11.78
2023-03-13T00:44:33.092Z,11.89
2023-03-13T00:45:33.074Z,11.78
2023-03-13T00:46:33.083Z,11.90
2023-03-13T00:47:33.012Z,12.01
2023-03-13T00:48:32.998Z,12.05
2023-03-13T00:49:32.978Z,12.06
2023-03-13T00:50:32.983Z,12.13
2023-03-13T00:51:32.923Z,12.08
2023-03-13T00:52:32.909Z,12.04
2023-03-13T00:53:32.885Z,12.05
2023-03-13T00:54:32.860Z,12.06
2023-03-13T00:55:32.827Z,12.01
2023-03-13T00:56:32.810Z,12.02
2023-03-13T00:57:32.787Z,12.02
2023-03-13T00:58:32.768Z,12.02
2023-03-13T00:59:32.818Z,11.93
2023-03-13T01:00:32.740Z,12.02
2023-03-13T01:01:32.698Z,12.02
2023-03-13T01:02:32.798Z,11.99
2023-03-13T01:03:32.896Z,12.04
2023-03-13T01:04:32.629Z,12.04
2023-03-13T01:05:32.699Z,12.02
2023-03-13T01:06:32.588Z,11.86
2023-03-13T01:07:32.555Z,11.94
2023-03-13T01:08:32.545Z,11.99
2023-03-13T01:09:32.517Z,12.11
2023-03-13T01:10:32.491Z,12.16
2023-03-13T01:11:32.466Z,12.09
2023-03-13T01:12:32.444Z,12.05
2023-03-13T01:13:32.415Z,12.04
2023-03-13T01:14:32.396Z,12.02
2023-03-13T01:15:32.498Z,12.02
2023-03-13T01:16:32.365Z,12.05
2023-03-13T01:17:32.320Z,12.01
2023-03-13T01:18:32.304Z,12.02
2023-03-13T01:19:32.266Z,12.01
2023-03-13T01:20:32.268Z,12.02
2023-03-13T01:21:32.248Z,12.15
2023-03-13T01:22:32.243Z,12.19
2023-03-13T01:23:32.178Z,12.02
2023-03-13T01:24:32.175Z,11.97
2023-03-13T01:25:32.189Z,11.97
2023-03-13T01:26:32.128Z,11.96
2023-03-13T01:27:32.093Z,11.96
2023-03-13T01:28:32.078Z,11.90
2023-03-13T01:29:32.043Z,12.01
2023-03-13T01:30:32.025Z,12.01
2023-03-13T01:31:32.072Z,11.99
2023-03-13T01:32:32.000Z,11.99
2023-03-13T01:33:31.957Z,12.01
2023-03-13T01:34:31.927Z,11.99
2023-03-13T01:35:31.907Z,12.12
2023-03-13T01:36:31.885Z,12.20
2023-03-13T01:37:31.884Z,12.20
2023-03-13T01:38:31.836Z,12.19
2023-03-13T01:39:31.824Z,12.19
2023-03-13T01:40:31.794Z,12.26
2023-03-13T01:41:31.775Z,12.30
2023-03-13T01:42:31.745Z,12.26
2023-03-13T01:43:31.711Z,12.26
2023-03-13T01:44:31.710Z,12.39
2023-03-13T01:45:31.663Z,12.37
2023-03-13T01:46:31.684Z,12.38
2023-03-13T01:47:31.628Z,12.37
2023-03-13T01:48:31.623Z,12.44
2023-03-13T01:49:31.579Z,12.39
2023-03-13T01:50:31.552Z,12.51
2023-03-13T01:51:31.533Z,12.34
2023-03-13T01:52:31.529Z,12.41
2023-03-13T01:53:31.485Z,12.49
2023-03-13T01:54:31.469Z,12.51
2023-03-13T01:55:31.438Z,12.38
2023-03-13T01:56:31.465Z,12.41
2023-03-13T01:57:31.389Z,12.48
2023-03-13T01:58:31.440Z,12.44
2023-03-13T01:59:31.339Z,12.51
2023-03-13T02:00:31.317Z,12.54
2023-03-13T02:01:31.350Z,12.34
2023-03-13T02:02:31.324Z,12.42
2023-03-13T02:03:31.264Z,12.49
2023-03-13T02:04:31.251Z,12.41
2023-03-13T02:05:31.204Z,12.45
2023-03-13T02:06:31.195Z,12.38
2023-03-13T02:07:31.189Z,12.51
2023-03-13T02:08:31.140Z,12.42
2023-03-13T02:09:31.126Z,12.34
2023-03-13T02:10:31.100Z,12.56
2023-03-13T02:11:31.071Z,12.48
2023-03-13T02:12:31.073Z,12.49
2023-03-13T02:13:31.016Z,12.44
2023-03-13T02:14:30.994Z,12.48
2023-03-13T02:15:30.983Z,12.48
2023-03-13T02:16:30.984Z,12.38
2023-03-13T02:17:30.925Z,12.52
2023-03-13T02:18:30.903Z,12.51
2023-03-13T02:19:30.900Z,12.51
2023-03-13T02:20:30.863Z,12.66
2023-03-13T02:21:30.831Z,12.67
2023-03-13T02:22:30.829Z,12.57
2023-03-13T02:23:30.789Z,12.60
2023-03-13T02:24:30.769Z,12.52
2023-03-13T02:25:30.744Z,12.52
2023-03-13T02:26:30.726Z,12.54
2023-03-13T02:27:30.688Z,12.54
2023-03-13T02:28:30.683Z,12.49
2023-03-13T02:29:30.665Z,12.64
2023-03-13T02:30:30.626Z,12.52
2023-03-13T02:31:30.686Z,12.52
2023-03-13T02:32:30.617Z,12.49
2023-03-13T02:33:30.547Z,12.49
2023-03-13T02:34:30.533Z,12.51
2023-03-13T02:35:30.547Z,12.41
2023-03-13T02:36:30.483Z,12.39
2023-03-13T02:37:30.454Z,12.38
2023-03-13T02:38:30.443Z,12.31
2023-03-13T02:39:30.419Z,12.29
2023-03-13T02:40:30.391Z,12.24
2023-03-13T02:41:30.364Z,12.19
2023-03-13T02:42:30.342Z,12.26
2023-03-13T02:43:30.329Z,12.09
2023-03-13T02:44:30.297Z,12.16
2023-03-13T02:45:30.270Z,12.24
2023-03-13T02:46:30.343Z,12.11
2023-03-13T02:47:30.224Z,12.09
2023-03-13T02:48:30.209Z,12.04
2023-03-13T02:49:30.219Z,12.06
2023-03-13T02:50:30.183Z,12.09
2023-03-13T02:51:30.156Z,12.15
2023-03-13T02:52:30.169Z,12.19
2023-03-13T02:53:30.106Z,12.19
2023-03-13T02:54:30.072Z,12.15
2023-03-13T02:55:30.046Z,12.15
2023-03-13T02:56:30.032Z,12.21
2023-03-13T02:57:30.002Z,12.11
2023-03-13T02:58:31.777Z,12.12
2023-03-13T02:59:29.943Z,11.97
2023-03-13T03:00:30.000Z,12.01
2023-03-13T03:01:29.896Z,11.87
2023-03-13T03:02:30.802Z,11.94
2023-03-13T03:03:29.850Z,11.86
2023-03-13T03:04:29.840Z,11.87
2023-03-13T03:05:29.820Z,11.83
2023-03-13T03:06:29.790Z,11.70
2023-03-13T03:07:29.758Z,11.80
2023-03-13T03:08:29.752Z,11.72
2023-03-13T03:09:29.709Z,11.75
2023-03-13T03:10:29.697Z,11.77
2023-03-13T03:11:29.706Z,11.74
2023-03-13T03:12:29.655Z,11.75
2023-03-13T03:13:29.642Z,11.68
2023-03-13T03:14:29.598Z,11.72
2023-03-13T03:15:29.595Z,11.70
2023-03-13T03:16:29.613Z,11.68
2023-03-13T03:17:29.520Z,11.65
2023-03-13T03:18:29.504Z,11.68
2023-03-13T03:19:29.496Z,11.67
2023-03-13T03:20:29.465Z,11.72
2023-03-13T03:21:29.427Z,11.74
2023-03-13T03:22:29.405Z,11.68
2023-03-13T03:23:29.433Z,11.67
2023-03-13T03:24:29.359Z,11.67
2023-03-13T03:25:29.339Z,11.71
2023-03-13T03:26:29.310Z,11.68
2023-03-13T03:27:29.287Z,11.62
2023-03-13T03:28:29.263Z,11.57
2023-03-13T03:29:29.326Z,11.54
2023-03-13T03:30:29.218Z,11.39
2023-03-13T03:31:29.202Z,11.34
2023-03-13T03:32:29.197Z,11.36
2023-03-13T03:33:29.130Z,11.43
2023-03-13T03:34:29.116Z,11.36
2023-03-13T03:35:29.091Z,11.41
2023-03-13T03:36:29.066Z,11.41
2023-03-13T03:37:29.044Z,11.49
2023-03-13T03:38:29.019Z,11.50
2023-03-13T03:39:29.010Z,11.61
2023-03-13T03:40:28.968Z,11.57
2023-03-13T03:41:28.938Z,11.67
2023-03-13T03:42:28.926Z,11.65
2023-03-13T03:43:28.912Z,11.65
2023-03-13T03:44:28.882Z,11.62
2023-03-13T03:45:28.906Z,11.74
2023-03-13T03:46:28.841Z,11.68
2023-03-13T03:47:28.878Z,11.75
2023-03-13T03:48:28.796Z,11.74
2023-03-13T03:49:28.761Z,11.62
2023-03-13T03:50:28.817Z,11.65
2023-03-13T03:51:28.711Z,11.74
2023-03-13T03:52:28.687Z,11.71
2023-03-13T03:53:28.669Z,11.65
2023-03-13T03:54:28.640Z,11.53
2023-03-13T03:55:28.613Z,11.59
2023-03-13T03:56:28.591Z,11.54
2023-03-13T03:57:28.561Z,11.47
2023-03-13T03:58:28.550Z,11.47
2023-03-13T03:59:28.518Z,11.38
2023-03-13T04:00:28.553Z,11.36
2023-03-13T04:01:28.474Z,11.32
2023-03-13T04:02:28.495Z,11.28
2023-03-13T04:03:28.521Z,11.31
2023-03-13T04:04:28.416Z,11.34
2023-03-13T04:05:28.378Z,11.20
2023-03-13T04:06:28.361Z,11.20
2023-03-13T04:07:28.320Z,11.19
2023-03-13T04:08:28.304Z,11.20
2023-03-13T04:09:30.440Z,11.09
2023-03-13T04:10:28.253Z,11.02
2023-03-13T04:11:28.232Z,11.10
2023-03-13T04:12:28.201Z,11.02
2023-03-13T04:13:28.184Z,11.06
2023-03-13T04:14:28.179Z,11.14
2023-03-13T04:15:28.141Z,11.11
2023-03-13T04:16:28.157Z,11.02
2023-03-13T04:17:28.093Z,11.03
2023-03-13T04:18:28.072Z,11.03
2023-03-13T04:19:28.041Z,10.89
2023-03-13T04:20:28.023Z,10.98
2023-03-13T04:21:28.006Z,10.84
2023-03-13T04:22:27.969Z,10.94
2023-03-13T04:23:27.958Z,11.03
2023-03-13T04:24:27.918Z,10.94
2023-03-13T04:25:27.899Z,10.95
2023-03-13T04:26:27.886Z,10.99
2023-03-13T04:27:27.884Z,10.99
2023-03-13T04:28:27.837Z,11.01
2023-03-13T04:29:27.794Z,10.95
2023-03-13T04:30:27.798Z,10.95
2023-03-13T04:31:27.753Z,11.03
2023-03-13T04:32:27.765Z,10.96
2023-03-13T04:33:27.720Z,10.96
2023-03-13T04:34:27.674Z,11.03
2023-03-13T04:35:27.723Z,11.01
2023-03-13T04:36:27.709Z,11.14
2023-03-13T04:37:27.609Z,11.03
2023-03-13T04:38:27.596Z,10.99
2023-03-13T04:39:27.552Z,11.17
2023-03-13T04:40:27.525Z,11.17
2023-03-13T04:41:27.511Z,11.11
2023-03-13T04:42:27.480Z,11.21
2023-03-13T04:43:27.464Z,11.25
2023-03-13T04:44:27.450Z,11.19
2023-03-13T04:45:27.411Z,11.21
2023-03-13T04:46:27.490Z,11.24
2023-03-13T04:47:27.362Z,11.27
2023-03-13T04:48:27.336Z,11.27
2023-03-13T04:49:27.319Z,11.28
2023-03-13T04:50:27.294Z,11.31
2023-03-13T04:51:27.301Z,11.36
2023-03-13T04:52:27.243Z,11.35
2023-03-13T04:53:27.232Z,11.41
2023-03-13T04:54:27.195Z,11.35
2023-03-13T04:55:27.172Z,11.41
2023-03-13T04:56:42.091Z,11.44
2023-03-13T04:57:27.123Z,11.39
2023-03-13T04:58:27.092Z,11.38
2023-03-13T04:59:27.093Z,11.32
2023-03-13T05:00:27.055Z,11.44
2023-03-13T05:01:27.135Z,11.52
2023-03-13T05:02:27.005Z,11.52
2023-03-13T05:03:26.985Z,11.52
2023-03-13T05:04:26.959Z,11.59
2023-03-13T05:05:27.046Z,11.57
2023-03-13T05:06:26.904Z,11.64
2023-03-13T05:07:26.882Z,11.54
2023-03-13T05:08:26.887Z,11.57
2023-03-13T05:09:26.840Z,11.56
2023-03-13T05:10:26.804Z,11.53
2023-03-13T05:11:26.799Z,11.57
2023-03-13T05:12:26.755Z,11.59
2023-03-13T05:13:26.733Z,11.70
2023-03-13T05:14:26.716Z,11.70
2023-03-13T05:15:26.691Z,11.72
2023-03-13T05:16:26.735Z,11.67
2023-03-13T05:17:26.662Z,11.70
2023-03-13T05:18:26.629Z,11.71
2023-03-13T05:19:26.609Z,11.72
2023-03-13T05:20:26.576Z,11.72
2023-03-13T05:21:26.565Z,11.75
2023-03-13T05:22:26.528Z,11.71
2023-03-13T05:23:26.504Z,11.62
2023-03-13T05:24:26.482Z,11.68
2023-03-13T05:25:26.451Z,11.70
2023-03-13T05:26:26.449Z,11.74
2023-03-13T05:27:26.444Z,11.65
2023-03-13T05:28:26.385Z,11.75
2023-03-13T05:29:26.361Z,11.74
2023-03-13T05:30:26.330Z,11.72
2023-03-13T05:31:26.443Z,11.85
2023-03-13T05:32:26.380Z,11.83
2023-03-13T05:33:26.264Z,11.85
2023-03-13T05:34:26.236Z,11.90
2023-03-13T05:35:26.256Z,11.83
2023-03-13T05:36:26.191Z,11.87
2023-03-13T05:37:26.370Z,11.83
2023-03-13T05:38:26.137Z,11.86
2023-03-13T05:39:26.119Z,11.97
2023-03-13T05:40:26.093Z,11.94
2023-03-13T05:41:26.080Z,11.90
2023-03-13T05:42:26.047Z,12.02
2023-03-13T05:43:26.018Z,12.01
2023-03-13T05:44:25.992Z,11.99
2023-03-13T05:45:25.992Z,12.02
2023-03-13T05:46:26.028Z,11.86
2023-03-13T05:47:25.947Z,11.90
2023-03-13T05:48:25.906Z,11.89
2023-03-13T05:49:25.897Z,11.83
2023-03-13T05:50:25.848Z,11.87
2023-03-13T05:51:25.834Z,11.87
2023-03-13T05:52:25.801Z,11.99
2023-03-13T05:53:25.784Z,11.97
2023-03-13T05:54:25.758Z,11.99
2023-03-13T05:55:25.734Z,11.93
2023-03-13T05:56:25.725Z,11.94
2023-03-13T05:57:25.683Z,11.99
2023-03-13T05:58:25.669Z,11.96
2023-03-13T05:59:25.639Z,12.02
2023-03-13T06:00:25.629Z,12.02
2023-03-13T06:01:25.592Z,12.02
2023-03-13T06:02:25.564Z,11.99
2023-03-13T06:03:25.573Z,12.05
2023-03-13T06:04:25.629Z,11.99
2023-03-13T06:05:25.501Z,12.11
2023-03-13T06:06:25.473Z,12.13
2023-03-13T06:07:25.453Z,12.05
2023-03-13T06:08:25.426Z,12.12
2023-03-13T06:09:25.410Z,12.12
2023-03-13T06:10:25.374Z,12.21
2023-03-13T06:11:25.414Z,12.19
2023-03-13T06:12:25.334Z,12.15
2023-03-13T06:13:25.303Z,12.24
2023-03-13T06:14:25.280Z,12.24
2023-03-13T06:15:25.259Z,12.29
2023-03-13T06:16:25.274Z,12.20
2023-03-13T06:17:25.208Z,12.26
2023-03-13T06:18:25.200Z,12.13
2023-03-13T06:19:25.165Z,12.21
2023-03-13T06:20:25.155Z,12.26
2023-03-13T06:21:25.150Z,12.29
2023-03-13T06:22:25.094Z,12.21
2023-03-13T06:23:25.067Z,12.23
2023-03-13T06:24:25.050Z,12.24
2023-03-13T06:25:25.028Z,12.27
2023-03-13T06:26:25.002Z,12.24
2023-03-13T06:27:24.976Z,12.23
2023-03-13T06:28:24.962Z,12.26
2023-03-13T06:29:24.933Z,12.27
2023-03-13T06:30:24.903Z,12.24
2023-03-13T06:31:24.935Z,12.27
2023-03-13T06:32:24.951Z,12.37
2023-03-13T06:33:24.941Z,12.27
2023-03-13T06:34:24.804Z,12.34
2023-03-13T06:35:24.788Z,12.41
2023-03-13T06:36:24.814Z,12.45
2023-03-13T06:37:24.740Z,12.38
2023-03-13T06:38:24.779Z,12.42
2023-03-13T06:39:24.707Z,12.48
2023-03-13T06:40:24.671Z,12.52
2023-03-13T06:41:24.664Z,12.52
2023-03-13T06:42:24.619Z,12.52
2023-03-13T06:43:24.605Z,12.52
2023-03-13T06:44:24.572Z,12.54
2023-03-13T06:45:24.563Z,12.64
2023-03-13T06:46:24.558Z,12.62
2023-03-13T06:47:24.510Z,12.69
2023-03-13T06:48:24.531Z,12.67
2023-03-13T06:49:24.465Z,12.67
2023-03-13T06:50:24.428Z,12.67
2023-03-13T06:51:24.441Z,12.77
2023-03-13T06:52:34.122Z,12.77
2023-03-13T06:53:24.370Z,12.71
2023-03-13T06:54:24.342Z,12.79
2023-03-13T06:55:24.319Z,12.81
2023-03-13T06:56:24.295Z,12.82
2023-03-13T06:57:24.282Z,12.81
2023-03-13T06:58:32.009Z,12.82
2023-03-13T06:59:24.235Z,12.81
2023-03-13T07:00:24.212Z,12.85
2023-03-13T07:01:24.286Z,12.85
2023-03-13T07:02:24.155Z,12.85
2023-03-13T07:03:24.148Z,12.78
2023-03-13T07:04:24.115Z,12.88
2023-03-13T07:05:24.101Z,12.84
2023-03-13T07:06:24.066Z,12.85
2023-03-13T07:07:31.722Z,12.99
2023-03-13T07:08:24.022Z,13.00
2023-03-13T07:09:24.030Z,12.99
2023-03-13T07:10:25.149Z,12.97
2023-03-13T07:11:23.950Z,12.97
2023-03-13T07:12:23.925Z,13.02
2023-03-13T07:13:23.928Z,13.02
2023-03-13T07:14:23.896Z,13.11
2023-03-13T07:15:23.871Z,13.17
2023-03-13T07:16:23.865Z,13.14
2023-03-13T07:17:23.878Z,13.21
2023-03-13T07:18:23.840Z,13.17
2023-03-13T07:19:23.770Z,13.20
2023-03-13T07:20:23.836Z,13.20
2023-03-13T07:21:23.728Z,13.25
2023-03-13T07:22:23.701Z,13.29
2023-03-13T07:23:23.702Z,13.27
2023-03-13T07:24:23.699Z,13.25
2023-03-13T07:25:23.646Z,13.20
2023-03-13T07:26:23.656Z,13.33
2023-03-13T07:27:23.645Z,13.30
2023-03-13T07:28:23.577Z,13.30
2023-03-13T07:29:23.569Z,13.22
2023-03-13T07:30:23.601Z,13.27
2023-03-13T07:31:23.521Z,13.25
2023-03-13T07:32:23.496Z,13.25
2023-03-13T07:33:23.452Z,13.27
2023-03-13T07:34:23.427Z,13.32
2023-03-13T07:35:23.410Z,13.27
2023-03-13T07:36:23.460Z,13.32
2023-03-13T07:37:23.367Z,13.32
2023-03-13T07:38:23.338Z,13.37
2023-03-13T07:39:23.315Z,13.40
2023-03-13T07:40:23.289Z,13.37
2023-03-13T07:41:23.269Z,13.38
2023-03-13T07:42:23.249Z,13.38
2023-03-13T07:43:23.222Z,13.43
2023-03-13T07:44:23.209Z,13.44
2023-03-13T07:45:23.181Z,13.47
2023-03-13T07:46:23.254Z,13.47
2023-03-13T07:47:23.132Z,13.47
2023-03-13T07:48:23.114Z,13.47
2023-03-13T07:49:23.101Z,13.47
2023-03-13T07:50:23.124Z,13.49
2023-03-13T07:51:33.529Z,13.52
2023-03-13T07:52:23.061Z,13.46
2023-03-13T07:53:23.059Z,13.49
2023-03-13T07:54:23.052Z,13.52
2023-03-13T07:55:22.968Z,13.55
2023-03-13T07:56:22.932Z,13.51
2023-03-13T07:57:22.905Z,13.59
2023-03-13T07:58:22.886Z,13.69
2023-03-13T07:59:22.864Z,13.63
2023-03-13T08:00:22.846Z,13.69
2023-03-13T08:01:25.134Z,13.63
2023-03-13T08:02:22.917Z,13.67
2023-03-13T08:03:22.825Z,13.65
2023-03-13T08:04:22.827Z,13.62
2023-03-13T08:05:22.717Z,13.69
2023-03-13T08:06:22.703Z,13.69
2023-03-13T08:07:22.675Z,13.71
2023-03-13T08:08:22.657Z,13.63
2023-03-13T08:09:22.645Z,13.67
2023-03-13T08:10:22.612Z,13.65
2023-03-13T08:11:22.583Z,13.71
2023-03-13T08:12:22.571Z,13.63
2023-03-13T08:13:22.541Z,13.63
2023-03-13T08:14:22.522Z,13.74
2023-03-13T08:15:22.491Z,13.74
2023-03-13T08:16:22.535Z,13.80
2023-03-13T08:17:22.453Z,13.84
2023-03-13T08:18:22.436Z,13.88
2023-03-13T08:19:22.399Z,13.77
2023-03-13T08:20:22.390Z,13.95
2023-03-13T08:21:22.366Z,13.92
2023-03-13T08:22:22.334Z,13.95
2023-03-13T08:23:22.317Z,13.94
2023-03-13T08:24:22.331Z,13.94
2023-03-13T08:25:22.260Z,13.91
2023-03-13T08:26:22.243Z,13.98
2023-03-13T08:27:22.232Z,13.91
2023-03-13T08:28:22.236Z,14.04
2023-03-13T08:29:22.176Z,14.06
2023-03-13T08:30:22.156Z,14.14
2023-03-13T08:31:22.276Z,14.25
2023-03-13T08:32:22.160Z,14.20
2023-03-13T08:33:22.104Z,14.21
2023-03-13T08:34:22.068Z,14.27
2023-03-13T08:35:22.055Z,14.19
2023-03-13T08:36:22.076Z,14.12
2023-03-13T08:37:22.007Z,14.12
2023-03-13T08:38:21.995Z,14.04
2023-03-13T08:39:21.968Z,14.14
2023-03-13T08:40:21.943Z,14.09
2023-03-13T08:41:21.916Z,14.13
2023-03-13T08:42:21.889Z,14.13
2023-03-13T08:43:21.866Z,14.24
2023-03-13T08:44:21.864Z,14.27
2023-03-13T08:45:21.830Z,14.24
2023-03-13T08:46:21.866Z,14.35
2023-03-13T08:47:21.800Z,14.31
2023-03-13T08:48:21.766Z,14.34
2023-03-13T08:49:21.766Z,14.39
2023-03-13T08:50:21.749Z,14.50
2023-03-13T08:51:21.697Z,14.43
2023-03-13T08:52:21.673Z,14.50
2023-03-13T08:53:21.663Z,14.57
2023-03-13T08:54:21.630Z,14.53
2023-03-13T08:55:21.616Z,14.57
2023-03-13T08:56:21.594Z,14.54
2023-03-13T08:57:21.563Z,14.62
2023-03-13T08:58:21.556Z,14.62
2023-03-13T08:59:21.533Z,14.54
2023-03-13T09:00:21.498Z,14.44
2023-03-13T09:01:21.496Z,14.34
2023-03-13T09:02:21.513Z,14.43
2023-03-13T09:03:21.476Z,14.53
2023-03-13T09:04:21.428Z,14.50
2023-03-13T09:05:21.394Z,14.52
2023-03-13T09:06:21.381Z,14.53
2023-03-13T09:07:21.369Z,14.53
2023-03-13T09:08:21.329Z,14.56
2023-03-13T09:09:23.241Z,14.64
2023-03-13T09:10:21.294Z,14.57
2023-03-13T09:11:21.276Z,14.62
2023-03-13T09:12:30.387Z,14.61
2023-03-13T09:13:21.218Z,14.67
2023-03-13T09:14:21.198Z,14.62
2023-03-13T09:15:21.184Z,14.65
2023-03-13T09:16:21.227Z,14.78
2023-03-13T09:17:21.132Z,14.71
2023-03-13T09:18:21.199Z,14.67
2023-03-13T09:19:21.091Z,14.67
2023-03-13T09:20:21.069Z,14.71
2023-03-13T09:21:21.076Z,14.80
2023-03-13T09:22:21.032Z,14.83
2023-03-13T09:23:21.019Z,14.88
2023-03-13T09:24:20.993Z,14.88
2023-03-13T09:25:20.962Z,14.91
2023-03-13T09:26:22.983Z,14.98
2023-03-13T09:27:20.924Z,14.91
2023-03-13T09:28:20.900Z,14.88
2023-03-13T09:29:20.873Z,14.99
2023-03-13T09:30:20.884Z,14.91
2023-03-13T09:31:20.927Z,14.88
2023-03-13T09:32:20.862Z,14.90
2023-03-13T09:33:20.797Z,14.90
2023-03-13T09:34:20.770Z,14.98
2023-03-13T09:35:20.750Z,14.94
2023-03-13T09:36:22.399Z,14.93
2023-03-13T09:37:20.716Z,14.99
2023-03-13T09:38:20.697Z,15.02
2023-03-13T09:39:20.676Z,15.03
2023-03-13T09:40:20.643Z,14.91
2023-03-13T09:41:20.660Z,15.06
2023-03-13T09:42:20.603Z,14.95
2023-03-13T09:43:20.585Z,15.06
2023-03-13T09:44:20.576Z,15.11
2023-03-13T09:45:20.535Z,15.09
2023-03-13T09:46:20.566Z,15.17
2023-03-13T09:47:20.488Z,15.21
2023-03-13T09:48:20.482Z,15.33
2023-03-13T09:49:20.452Z,15.28
2023-03-13T09:50:20.430Z,15.33
2023-03-13T09:51:20.413Z,15.42
2023-03-13T09:52:20.390Z,15.38
2023-03-13T09:53:20.369Z,15.51
2023-03-13T09:54:20.368Z,15.56
2023-03-13T09:55:20.321Z,15.49
2023-03-13T09:56:20.303Z,15.54
2023-03-13T09:57:20.284Z,15.56
2023-03-13T09:58:20.266Z,15.64
2023-03-13T09:59:20.243Z,15.64
2023-03-13T10:00:20.224Z,15.72
2023-03-13T10:01:20.222Z,15.68
2023-03-13T10:02:20.185Z,15.75
2023-03-13T10:03:20.172Z,15.82
2023-03-13T10:04:20.191Z,15.84
2023-03-13T10:05:20.116Z,15.89
2023-03-13T10:06:20.101Z,15.92
2023-03-13T10:07:20.090Z,15.78
2023-03-13T10:08:20.086Z,15.93
2023-03-13T10:09:20.047Z,15.88
2023-03-13T10:10:20.037Z,15.86
2023-03-13T10:11:20.025Z,15.85
2023-03-13T10:12:19.983Z,15.86
2023-03-13T10:13:19.956Z,15.76
2023-03-13T10:14:19.944Z,15.72
2023-03-13T10:15:19.928Z,15.66
2023-03-13T10:16:19.976Z,15.68
2023-03-13T10:17:19.873Z,15.64
2023-03-13T10:18:19.884Z,15.59
2023-03-13T10:19:19.846Z,15.75
2023-03-13T10:20:19.817Z,15.68
2023-03-13T10:21:19.806Z,15.75
2023-03-13T10:22:19.793Z,15.81
2023-03-13T10:23:19.756Z,15.84
2023-03-13T10:24:19.749Z,15.75
2023-03-13T10:25:19.730Z,15.78
2023-03-13T10:26:19.714Z,15.76
2023-03-13T10:27:19.676Z,15.82
2023-03-13T10:28:19.667Z,15.81
2023-03-13T10:29:19.648Z,15.84
2023-03-13T10:30:19.683Z,15.85
2023-03-13T10:31:19.639Z,15.94
2023-03-13T10:32:19.651Z,15.86
2023-03-13T10:33:19.566Z,15.79
2023-03-13T10:34:19.565Z,15.82
2023-03-13T10:35:19.521Z,15.79
2023-03-13T10:36:19.566Z,15.92
2023-03-13T10:37:19.494Z,15.88
2023-03-13T10:38:19.473Z,15.86
2023-03-13T10:39:19.447Z,15.81
2023-03-13T10:40:19.464Z,15.81
2023-03-13T10:41:19.418Z,15.82
2023-03-13T10:42:19.391Z,15.78
2023-03-13T10:43:21.903Z,15.67
2023-03-13T10:44:19.346Z,15.61
2023-03-13T10:45:19.323Z,15.64
2023-03-13T10:46:19.330Z,15.70
2023-03-13T10:47:19.289Z,15.81
2023-03-13T10:48:19.268Z,15.78
2023-03-13T10:49:19.251Z,15.84
2023-03-13T10:50:19.324Z,15.96
2023-03-13T10:51:19.253Z,16.04
2023-03-13T10:52:19.187Z,16.00
2023-03-13T10:53:19.182Z,16.11
2023-03-13T10:54:19.150Z,16.18
2023-03-13T10:55:19.125Z,16.12
2023-03-13T10:56:19.139Z,16.22
2023-03-13T10:57:19.132Z,16.25
2023-03-13T10:58:19.071Z,16.27
2023-03-13T10:59:19.059Z,16.16
2023-03-13T11:00:19.034Z,16.06
2023-03-13T11:01:19.011Z,16.01
2023-03-13T11:02:19.021Z,15.84
2023-03-13T11:03:19.078Z,15.97
2023-03-13T11:04:18.956Z,15.88
2023-03-13T11:05:18.935Z,15.86
2023-03-13T11:06:18.940Z,15.99
2023-03-13T11:07:18.892Z,16.01
2023-03-13T11:08:18.914Z,16.01
2023-03-13T11:09:18.859Z,16.01
2023-03-13T11:10:19.005Z,15.96
2023-03-13T11:11:18.818Z,16.01
2023-03-13T11:12:18.799Z,16.01
2023-03-13T11:13:34.073Z,16.01
2023-03-13T11:14:18.772Z,16.03
2023-03-13T11:15:18.815Z,15.94
2023-03-13T11:16:18.801Z,16.06
2023-03-13T11:17:18.701Z,16.07
2023-03-13T11:18:18.692Z,16.06
2023-03-13T11:19:18.695Z,16.06
2023-03-13T11:20:18.636Z,16.25
2023-03-13T11:21:18.769Z,16.34
2023-03-13T11:22:18.642Z,16.44
2023-03-13T11:23:18.586Z,16.58
2023-03-13T11:24:18.566Z,16.60
2023-03-13T11:25:18.558Z,16.65
2023-03-13T11:26:18.578Z,16.67
2023-03-13T11:27:18.519Z,16.62
2023-03-13T11:28:18.484Z,16.48
2023-03-13T11:29:18.628Z,16.41
2023-03-13T11:30:18.450Z,16.31
2023-03-13T11:31:18.483Z,16.30
2023-03-13T11:32:18.517Z,16.38
2023-03-13T11:33:18.399Z,16.16
2023-03-13T11:34:18.377Z,16.20
2023-03-13T11:35:18.354Z,16.40
2023-03-13T11:36:18.331Z,16.30
2023-03-13T11:37:18.322Z,16.27
2023-03-13T11:38:18.326Z,16.30
2023-03-13T11:39:18.285Z,16.40
2023-03-13T11:40:18.287Z,16.34
2023-03-13T11:41:18.255Z,16.49
2023-03-13T11:42:18.220Z,16.44
2023-03-13T11:43:25.342Z,16.44
2023-03-13T11:44:18.180Z,16.48
2023-03-13T11:45:18.179Z,16.67
2023-03-13T11:46:18.249Z,16.68
2023-03-13T11:47:18.128Z,16.75
2023-03-13T11:48:18.101Z,16.88
2023-03-13T11:49:18.102Z,16.89
2023-03-13T11:50:18.062Z,16.85
2023-03-13T11:51:20.652Z,16.85
2023-03-13T11:52:18.029Z,16.78
2023-03-13T11:53:18.051Z,16.98
2023-03-13T11:54:17.993Z,17.06
2023-03-13T11:55:17.980Z,17.20
2023-03-13T11:56:17.952Z,17.22
2023-03-13T11:57:17.941Z,17.36
2023-03-13T11:58:17.925Z,17.64
2023-03-13T11:59:17.962Z,17.79
2023-03-13T12:00:17.877Z,18.24
2023-03-13T12:01:17.934Z,18.43
2023-03-13T12:02:17.923Z,18.74
2023-03-13T12:03:17.864Z,18.72
2023-03-13T12:04:17.804Z,18.79
2023-03-13T12:05:17.889Z,18.70
2023-03-13T12:06:27.555Z,18.39
2023-03-13T12:07:17.774Z,18.43
2023-03-13T12:08:17.748Z,18.40
2023-03-13T12:09:17.764Z,18.36
2023-03-13T12:10:17.720Z,18.18
2023-03-13T12:11:17.700Z,18.22
2023-03-13T12:12:17.708Z,18.09
2023-03-13T12:13:17.667Z,18.13
2023-03-13T12:14:17.658Z,18.04
2023-03-13T12:15:19.184Z,18.07
2023-03-13T12:16:17.698Z,18.12
2023-03-13T12:17:17.658Z,18.09
2023-03-13T12:18:17.594Z,18.04
2023-03-13T12:19:17.589Z,18.09
2023-03-13T12:20:17.555Z,18.28
2023-03-13T12:21:17.536Z,18.10
2023-03-13T12:22:17.520Z,17.84
2023-03-13T12:23:17.539Z,17.85
2023-03-13T12:24:17.483Z,17.81
2023-03-13T12:25:17.562Z,17.82
2023-03-13T12:26:17.468Z,17.74
2023-03-13T12:27:17.441Z,17.81
2023-03-13T12:28:17.547Z,17.79
2023-03-13T12:29:17.414Z,17.82
2023-03-13T12:30:17.386Z,17.78
2023-03-13T12:31:17.429Z,17.82
2023-03-13T12:32:17.398Z,17.92
2023-03-13T12:33:17.419Z,17.89
2023-03-13T12:34:17.331Z,17.95
2023-03-13T12:35:17.316Z,18.09
2023-03-13T12:36:17.309Z,18.22
2023-03-13T12:37:17.272Z,18.24
2023-03-13T12:38:17.255Z,18.49
2023-03-13T12:39:17.236Z,18.49
2023-03-13T12:40:17.364Z,18.55
2023-03-13T12:41:17.248Z,18.57
2023-03-13T12:42:17.188Z,18.61
2023-03-13T12:43:17.172Z,18.67
2023-03-13T12:44:17.145Z,18.99
2023-03-13T12:45:17.185Z,19.13
2023-03-13T12:46:17.150Z,19.35
2023-03-13T12:47:17.106Z,19.65
2023-03-13T12:48:17.145Z,19.46
2023-03-13T12:49:17.080Z,19.18
2023-03-13T12:50:17.072Z,19.13
2023-03-13T12:51:17.049Z,19.24
2023-03-13T12:52:17.030Z,19.51